메인 페이지
METAR-TAF:

METAR-TAF

공항 :

피츠버그, 펜실베이니아, 미국

피츠버그 국제공항

위도: 40-30-14N, 경도: 080-15-59W, 고도: 366m

현재 날씨관측

예보는 1 시간 7분 전, 03:51시(UTC)에 발표되었습니다.
남남서11kt
온도 2°C
습도 47%
기압 1015 hPa
시정: 16.1km
맑음

METAR: KPIT 200351Z 21011KT 10SM CLR 02/M08 A2997 RMK AO2 SLP168 T00171083

시각: 23:58 (04:58 UTC)

예보

예보는 2 시간 11분 전, 02:47시(UTC)에 발표되었습니다.
예보 대상 시간: 20일 03시부터 21일 06시까지 (UTC)
남남서6kt
시정: 10km
고도 25000ft 상공 구름 조금
20일 1400시부터 (UTC)
남서11kt, 순간 최대 풍속 20kt
시정: 10km
고도 3000ft 상공 구름 보통
20일 2200시부터 (UTC)
서남서8kt
시정: 10km
고도 3000ft 상공 구름 많음
21일 0400시부터 (UTC)
남서6kt
시정: 10km
고도 1500ft 상공 구름 많음

TAF: KPIT 200247Z 2003/2106 21006KT P6SM FEW250 WS020/24045KT FM201400 22011G20KT P6SM SCT030 FM202200 24008KT P6SM BKN030 FM210400 23006KT P6SM BKN015

4,000개 이상의 공항 관측 자료 및 예보 (METAR 및 TAF 보고).

지도상에서 검색 가능한 기상관측소가 노란 점과 빨간 점으로 표시되어 있습니다.

기상관측소 명을 보려면 표시 위로 마우스를 이동하세요.

날씨 관측과 예보를 보려면 클릭하세요.

지도 변경 : 확대하려면 엑스 표시가 있는 녹색 버튼, 축소하려면 빼기 표시가 있는 녹색 버튼, 다음 페이지의 지도를 보려면 녹색 화살표를 클릭하세요.


METAR-TAF: